Terminal Aerodrome Forecast
Issued by NWS Upton, NY

Home | Current Version | Previous Version | Text Only | Print | Product List | Glossary On
Versions: 1 2 3 4 5 6 7 8 9 10 11 12 13 14 15 16 17 18 19 20 21 22 23 24 25 26 27 28
105
FTUS41 KOKX 241958 AAA
TAFISP
TAF AMD
KISP 241958Z 2420/2518 17008KT P6SM SKC
     FM242300 VRB03KT P6SM SKC
      TEMPO 2508/2512 3SM BR
     FM251200 06005KT P6SM SKC=

USA.gov is the U.S. government's official web portal to all federal, state and local government web resources and services.